createdAt,value
2016-12-20T00:00:17.048Z,1025.9
2016-12-20T00:01:27.756Z,1025.88
2016-12-20T00:02:38.485Z,1025.88
2016-12-20T00:03:49.199Z,1025.87
2016-12-20T00:04:59.928Z,1025.87
2016-12-20T00:06:10.655Z,1025.84
2016-12-20T00:07:21.389Z,1025.79
2016-12-20T00:08:32.111Z,1025.82
2016-12-20T00:09:42.829Z,1025.81
2016-12-20T00:10:53.553Z,1025.77
2016-12-20T00:12:04.277Z,1025.76
2016-12-20T00:13:15.003Z,1025.77
2016-12-20T00:14:25.737Z,1025.74
2016-12-20T00:15:36.469Z,1025.71
2016-12-20T00:16:47.187Z,1025.65
2016-12-20T00:17:57.901Z,1025.64
2016-12-20T00:19:08.622Z,1025.64
2016-12-20T00:20:19.343Z,1025.69
2016-12-20T00:21:30.089Z,1025.65
2016-12-20T00:22:40.838Z,1025.67
2016-12-20T00:23:51.564Z,1025.67
2016-12-20T00:25:02.284Z,1025.69
2016-12-20T00:26:13.035Z,1025.71
2016-12-20T00:27:23.780Z,1025.73
2016-12-20T00:28:34.569Z,1025.74
2016-12-20T00:29:45.321Z,1025.75
2016-12-20T00:30:56.364Z,1025.75
2016-12-20T00:32:07.103Z,1025.75
2016-12-20T00:33:17.824Z,1025.76
2016-12-20T00:34:28.531Z,1025.75
2016-12-20T00:35:39.269Z,1025.74
2016-12-20T00:36:50.023Z,1025.78
2016-12-20T00:38:00.770Z,1025.77
2016-12-20T00:39:11.486Z,1025.81
2016-12-20T00:40:22.205Z,1025.79
2016-12-20T00:41:32.907Z,1025.77
2016-12-20T00:42:43.620Z,1025.75
2016-12-20T00:43:54.363Z,1025.75
2016-12-20T00:45:05.070Z,1025.76
2016-12-20T00:46:15.788Z,1025.77
2016-12-20T00:47:26.506Z,1025.76
2016-12-20T00:48:37.233Z,1025.7
2016-12-20T00:49:47.976Z,1025.7
2016-12-20T00:50:58.702Z,1025.71
2016-12-20T00:52:09.422Z,1025.68
2016-12-20T00:53:20.167Z,1025.72
2016-12-20T00:54:30.889Z,1025.65
2016-12-20T00:55:41.631Z,1025.67
2016-12-20T00:56:52.355Z,1025.64
2016-12-20T00:58:03.394Z,1025.62
2016-12-20T00:59:14.094Z,1025.66
2016-12-20T01:00:24.840Z,1025.66
2016-12-20T01:01:35.567Z,1025.68
2016-12-20T01:02:46.283Z,1025.7
2016-12-20T01:03:56.986Z,1025.69
2016-12-20T01:05:08.005Z,1025.7
2016-12-20T01:06:18.741Z,1025.69
2016-12-20T01:07:29.487Z,1025.7
2016-12-20T01:08:40.234Z,1025.66
2016-12-20T01:09:51.262Z,1025.6
2016-12-20T01:11:02.009Z,1025.59
2016-12-20T01:12:12.751Z,1025.55
2016-12-20T01:13:23.499Z,1025.53
2016-12-20T01:14:34.242Z,1025.56
2016-12-20T01:15:44.967Z,1025.53
2016-12-20T01:16:55.681Z,1025.55
2016-12-20T01:18:06.411Z,1025.51
2016-12-20T01:19:17.134Z,1025.46
2016-12-20T01:20:27.850Z,1025.47
2016-12-20T01:21:38.561Z,1025.48
2016-12-20T01:22:49.285Z,1025.46
2016-12-20T01:24:00.007Z,1025.41
2016-12-20T01:25:10.726Z,1025.41
2016-12-20T01:26:21.445Z,1025.43
2016-12-20T01:27:32.141Z,1025.44
2016-12-20T01:28:42.866Z,1025.43
2016-12-20T01:29:53.611Z,1025.4
2016-12-20T01:31:04.342Z,1025.41
2016-12-20T01:32:15.125Z,1025.37
2016-12-20T01:33:25.833Z,1025.37
2016-12-20T01:34:36.550Z,1025.39
2016-12-20T01:35:47.238Z,1025.34
2016-12-20T01:36:57.965Z,1025.33
2016-12-20T01:38:09.288Z,1025.34
2016-12-20T01:39:20.009Z,1025.32
2016-12-20T01:40:30.722Z,1025.34
2016-12-20T01:41:41.447Z,1025.29
2016-12-20T01:42:52.198Z,1025.25
2016-12-20T01:44:02.938Z,1025.2
2016-12-20T01:45:13.667Z,1025.24
2016-12-20T01:46:24.381Z,1025.2
2016-12-20T01:47:35.110Z,1025.19
2016-12-20T01:48:45.848Z,1025.19
2016-12-20T01:49:56.591Z,1025.2
2016-12-20T01:51:07.316Z,1025.23
2016-12-20T01:52:18.033Z,1025.25
2016-12-20T01:53:28.740Z,1025.22
2016-12-20T01:54:39.485Z,1025.22
2016-12-20T01:55:50.228Z,1025.23
2016-12-20T01:57:00.950Z,1025.21
2016-12-20T01:58:11.667Z,1025.24
2016-12-20T01:59:22.373Z,1025.18
2016-12-20T02:00:33.081Z,1025.19
2016-12-20T02:01:43.811Z,1025.21
2016-12-20T02:02:54.534Z,1025.2
2016-12-20T02:04:05.284Z,1025.2
2016-12-20T02:05:15.998Z,1025.19
2016-12-20T02:06:26.738Z,1025.17
2016-12-20T02:07:37.517Z,1025.21
2016-12-20T02:08:48.253Z,1025.22
2016-12-20T02:09:58.962Z,1025.24
2016-12-20T02:11:09.702Z,1025.21
2016-12-20T02:12:20.423Z,1025.19
2016-12-20T02:13:31.147Z,1025.25
2016-12-20T02:14:41.865Z,1025.22
2016-12-20T02:15:52.589Z,1025.23
2016-12-20T02:17:03.334Z,1025.28
2016-12-20T02:18:14.054Z,1025.27
2016-12-20T02:19:24.782Z,1025.27
2016-12-20T02:20:35.499Z,1025.25
2016-12-20T02:21:46.219Z,1025.27
2016-12-20T02:22:56.937Z,1025.3
2016-12-20T02:24:07.655Z,1025.26
2016-12-20T02:25:18.407Z,1025.26
2016-12-20T02:26:29.450Z,1025.26
2016-12-20T02:27:40.151Z,1025.24
2016-12-20T02:28:50.860Z,1025.22
2016-12-20T02:30:01.583Z,1025.24
2016-12-20T02:31:12.319Z,1025.17
2016-12-20T02:32:23.335Z,1025.22
2016-12-20T02:33:34.043Z,1025.18
2016-12-20T02:34:44.755Z,1025.17
2016-12-20T02:35:55.473Z,1025.17
2016-12-20T02:37:06.235Z,1025.16
2016-12-20T02:38:16.954Z,1025.15
2016-12-20T02:39:27.649Z,1025.14
2016-12-20T02:40:38.353Z,1025.06
2016-12-20T02:41:49.052Z,1025.05
2016-12-20T02:42:59.774Z,1025.01
2016-12-20T02:44:10.492Z,1024.97
2016-12-20T02:45:21.230Z,1025.02
2016-12-20T02:46:31.978Z,1025.05
2016-12-20T02:47:42.697Z,1025.02
2016-12-20T02:48:53.429Z,1025.03
2016-12-20T02:50:04.152Z,1025.01
2016-12-20T02:51:14.910Z,1025.05
2016-12-20T02:52:25.642Z,1025.04
2016-12-20T02:53:36.362Z,1024.99
2016-12-20T02:54:47.113Z,1024.95
2016-12-20T02:55:57.843Z,1024.95
2016-12-20T02:57:08.590Z,1024.92
2016-12-20T02:58:19.318Z,1024.88
2016-12-20T02:59:30.031Z,1024.83
2016-12-20T03:00:40.760Z,1024.85
2016-12-20T03:01:51.502Z,1024.83
2016-12-20T03:03:02.220Z,1024.86
2016-12-20T03:04:12.918Z,1024.87
2016-12-20T03:05:23.940Z,1024.83
2016-12-20T03:06:34.661Z,1024.86
2016-12-20T03:07:45.411Z,1024.84
2016-12-20T03:08:56.150Z,1024.82
2016-12-20T03:10:06.846Z,1024.82
2016-12-20T03:11:17.580Z,1024.83
2016-12-20T03:12:28.299Z,1024.8
2016-12-20T03:13:39.017Z,1024.78
2016-12-20T03:14:49.731Z,1024.81
2016-12-20T03:16:00.449Z,1024.81
2016-12-20T03:17:11.180Z,1024.81
2016-12-20T03:18:21.892Z,1024.8
2016-12-20T03:19:32.616Z,1024.8
2016-12-20T03:20:43.342Z,1024.81
2016-12-20T03:21:54.081Z,1024.83
2016-12-20T03:23:04.809Z,1024.83
2016-12-20T03:24:15.530Z,1024.81
2016-12-20T03:25:26.276Z,1024.83
2016-12-20T03:26:37.018Z,1024.82
2016-12-20T03:27:47.743Z,1024.84
2016-12-20T03:28:58.492Z,1024.85
2016-12-20T03:30:09.210Z,1024.85
2016-12-20T03:31:19.964Z,1024.87
2016-12-20T03:32:30.683Z,1024.87
2016-12-20T03:33:41.418Z,1024.86
2016-12-20T03:34:52.147Z,1024.84
2016-12-20T03:36:02.893Z,1024.81
2016-12-20T03:37:13.604Z,1024.77
2016-12-20T03:38:24.311Z,1024.74
2016-12-20T03:39:35.031Z,1024.77
2016-12-20T03:40:45.774Z,1024.78
2016-12-20T03:41:56.490Z,1024.78
2016-12-20T03:43:07.267Z,1024.8
2016-12-20T03:44:18.055Z,1024.8
2016-12-20T03:45:28.786Z,1024.8
2016-12-20T03:46:39.534Z,1024.83
2016-12-20T03:47:50.278Z,1024.84
2016-12-20T03:49:00.997Z,1024.76
2016-12-20T03:50:11.734Z,1024.79
2016-12-20T03:51:22.446Z,1024.8
2016-12-20T03:52:33.186Z,1024.75
2016-12-20T03:53:43.933Z,1024.75
2016-12-20T03:54:54.672Z,1024.76
2016-12-20T03:56:05.447Z,1024.73
2016-12-20T03:57:16.164Z,1024.73
2016-12-20T03:58:26.906Z,1024.75
2016-12-20T03:59:37.609Z,1024.77
2016-12-20T04:00:48.334Z,1024.76
2016-12-20T04:01:59.078Z,1024.75
2016-12-20T04:03:09.794Z,1024.72
2016-12-20T04:04:20.519Z,1024.72
2016-12-20T04:05:31.260Z,1024.7
2016-12-20T04:06:42.006Z,1024.68
2016-12-20T04:07:52.699Z,1024.69
2016-12-20T04:09:03.406Z,1024.68
2016-12-20T04:10:14.172Z,1024.67
2016-12-20T04:11:24.887Z,1024.7
2016-12-20T04:12:35.608Z,1024.66
2016-12-20T04:13:46.311Z,1024.63
2016-12-20T04:14:57.040Z,1024.72
2016-12-20T04:16:07.778Z,1024.68
2016-12-20T04:17:18.504Z,1024.67
2016-12-20T04:18:29.274Z,1024.65
2016-12-20T04:19:40.017Z,1024.62
2016-12-20T04:20:50.737Z,1024.64
2016-12-20T04:22:01.475Z,1024.64
2016-12-20T04:23:12.179Z,1024.6
2016-12-20T04:24:22.900Z,1024.59
2016-12-20T04:25:33.650Z,1024.56
2016-12-20T04:26:44.384Z,1024.54
2016-12-20T04:27:55.106Z,1024.59
2016-12-20T04:29:05.808Z,1024.55
2016-12-20T04:30:16.523Z,1024.52
2016-12-20T04:31:27.255Z,1024.57
2016-12-20T04:32:38.001Z,1024.55
2016-12-20T04:33:48.718Z,1024.5
2016-12-20T04:34:59.435Z,1024.54
2016-12-20T04:36:10.177Z,1024.56
2016-12-20T04:37:20.899Z,1024.56
2016-12-20T04:38:31.595Z,1024.58
2016-12-20T04:39:42.326Z,1024.59
2016-12-20T04:40:53.344Z,1024.64
2016-12-20T04:42:04.032Z,1024.64
2016-12-20T04:43:14.740Z,1024.64
2016-12-20T04:44:25.457Z,1024.67
2016-12-20T04:45:36.204Z,1024.65
2016-12-20T04:46:46.953Z,1024.66
2016-12-20T04:47:57.692Z,1024.67
2016-12-20T04:49:08.384Z,1024.65
2016-12-20T04:50:19.090Z,1024.7
2016-12-20T04:51:29.800Z,1024.67
2016-12-20T04:52:40.499Z,1024.64
2016-12-20T04:53:51.243Z,1024.6
2016-12-20T04:55:01.946Z,1024.6
2016-12-20T04:56:12.692Z,1024.57
2016-12-20T04:57:23.405Z,1024.51
2016-12-20T04:58:34.101Z,1024.55
2016-12-20T04:59:44.834Z,1024.53
2016-12-20T05:00:55.582Z,1024.53
2016-12-20T05:02:06.296Z,1024.54
2016-12-20T05:03:17.013Z,1024.47
2016-12-20T05:04:27.760Z,1024.47
2016-12-20T05:05:38.489Z,1024.43
2016-12-20T05:06:49.223Z,1024.38
2016-12-20T05:07:59.956Z,1024.37
2016-12-20T05:09:10.668Z,1024.32
2016-12-20T05:10:21.373Z,1024.33
2016-12-20T05:11:32.106Z,1024.32
2016-12-20T05:12:42.840Z,1024.33
2016-12-20T05:13:53.578Z,1024.39
2016-12-20T05:15:04.302Z,1024.45
2016-12-20T05:16:15.016Z,1024.41
2016-12-20T05:17:25.736Z,1024.43
2016-12-20T05:18:36.446Z,1024.42
2016-12-20T05:19:47.180Z,1024.41
2016-12-20T05:20:57.907Z,1024.45
2016-12-20T05:22:08.629Z,1024.47
2016-12-20T05:23:19.366Z,1024.42
2016-12-20T05:24:30.104Z,1024.43
2016-12-20T05:25:40.825Z,1024.49
2016-12-20T05:26:51.557Z,1024.47
2016-12-20T05:28:02.279Z,1024.47
2016-12-20T05:29:13.007Z,1024.45
2016-12-20T05:30:23.722Z,1024.48
2016-12-20T05:31:34.466Z,1024.41
2016-12-20T05:32:45.185Z,1024.44
2016-12-20T05:33:55.880Z,1024.43
2016-12-20T05:35:06.605Z,1024.42
2016-12-20T05:36:17.309Z,1024.44
2016-12-20T05:37:28.051Z,1024.41
2016-12-20T05:38:38.767Z,1024.43
2016-12-20T05:39:49.496Z,1024.39
2016-12-20T05:41:00.232Z,1024.42
2016-12-20T05:42:10.952Z,1024.37
2016-12-20T05:43:21.710Z,1024.34
2016-12-20T05:44:32.451Z,1024.38
2016-12-20T05:45:43.194Z,1024.32
2016-12-20T05:46:53.940Z,1024.36
2016-12-20T05:48:04.658Z,1024.39
2016-12-20T05:49:15.355Z,1024.38
2016-12-20T05:50:26.360Z,1024.33
2016-12-20T05:51:37.096Z,1024.34
2016-12-20T05:52:47.816Z,1024.32
2016-12-20T05:53:58.512Z,1024.33
2016-12-20T05:55:09.245Z,1024.31
2016-12-20T05:56:19.979Z,1024.3
2016-12-20T05:57:30.737Z,1024.33
2016-12-20T05:58:41.497Z,1024.26
2016-12-20T05:59:52.278Z,1024.25
2016-12-20T06:01:03.014Z,1024.23
2016-12-20T06:02:13.719Z,1024.24
2016-12-20T06:03:24.767Z,1024.28
2016-12-20T06:04:35.501Z,1024.28
2016-12-20T06:05:46.211Z,1024.23
2016-12-20T06:06:56.951Z,1024.26
2016-12-20T06:08:07.676Z,1024.26
2016-12-20T06:09:18.772Z,1024.25
2016-12-20T06:10:29.514Z,1024.23
2016-12-20T06:11:40.235Z,1024.29
2016-12-20T06:12:50.981Z,1024.33
2016-12-20T06:14:01.705Z,1024.36
2016-12-20T06:15:12.444Z,1024.38
2016-12-20T06:16:23.148Z,1024.41
2016-12-20T06:17:33.892Z,1024.37
2016-12-20T06:18:44.635Z,1024.4
2016-12-20T06:19:55.351Z,1024.4
2016-12-20T06:21:06.070Z,1024.41
2016-12-20T06:22:16.794Z,1024.41
2016-12-20T06:23:27.523Z,1024.46
2016-12-20T06:24:38.266Z,1024.43
2016-12-20T06:25:48.986Z,1024.45
2016-12-20T06:26:59.732Z,1024.44
2016-12-20T06:28:10.479Z,1024.44
2016-12-20T06:29:21.246Z,1024.42
2016-12-20T06:30:31.967Z,1024.44
2016-12-20T06:31:42.737Z,1024.42
2016-12-20T06:32:53.492Z,1024.4
2016-12-20T06:34:04.235Z,1024.42
2016-12-20T06:35:14.935Z,1024.42
2016-12-20T06:36:25.650Z,1024.44
2016-12-20T06:37:36.392Z,1024.45
2016-12-20T06:38:47.145Z,1024.46
2016-12-20T06:39:57.863Z,1024.4
2016-12-20T06:41:08.589Z,1024.4
2016-12-20T06:42:19.331Z,1024.43
2016-12-20T06:43:30.029Z,1024.41
2016-12-20T06:44:40.773Z,1024.38
2016-12-20T06:45:51.518Z,1024.44
2016-12-20T06:47:02.207Z,1024.37
2016-12-20T06:48:12.940Z,1024.34
2016-12-20T06:49:23.673Z,1024.35
2016-12-20T06:50:34.370Z,1024.28
2016-12-20T06:51:45.079Z,1024.33
2016-12-20T06:52:55.812Z,1024.33
2016-12-20T06:54:06.532Z,1024.35
2016-12-20T06:55:17.279Z,1024.33
2016-12-20T06:56:27.979Z,1024.34
2016-12-20T06:57:38.732Z,1024.36
2016-12-20T06:58:49.470Z,1024.33
2016-12-20T07:00:00.217Z,1024.33
2016-12-20T07:01:10.945Z,1024.37
2016-12-20T07:02:21.982Z,1024.37
2016-12-20T07:03:32.683Z,1024.44
2016-12-20T07:04:43.407Z,1024.52
2016-12-20T07:05:54.129Z,1024.5
2016-12-20T07:07:04.875Z,1024.53
2016-12-20T07:08:15.613Z,1024.55
2016-12-20T07:09:26.363Z,1024.58
2016-12-20T07:10:37.062Z,1024.54
2016-12-20T07:11:47.773Z,1024.53
2016-12-20T07:12:58.501Z,1024.53
2016-12-20T07:14:09.250Z,1024.55
2016-12-20T07:15:20.016Z,1024.5
2016-12-20T07:16:30.747Z,1024.57
2016-12-20T07:17:41.488Z,1024.6
2016-12-20T07:18:52.256Z,1024.61
2016-12-20T07:20:02.977Z,1024.62
2016-12-20T07:21:13.692Z,1024.64
2016-12-20T07:22:24.418Z,1024.63
2016-12-20T07:23:35.143Z,1024.64
2016-12-20T07:24:45.888Z,1024.62
2016-12-20T07:25:56.634Z,1024.61
2016-12-20T07:27:07.356Z,1024.59
2016-12-20T07:28:18.068Z,1024.58
2016-12-20T07:29:28.801Z,1024.6
2016-12-20T07:30:39.517Z,1024.61
2016-12-20T07:31:50.302Z,1024.64
2016-12-20T07:33:01.026Z,1024.63
2016-12-20T07:34:11.755Z,1024.62
2016-12-20T07:35:22.502Z,1024.61
2016-12-20T07:36:33.249Z,1024.66
2016-12-20T07:37:43.985Z,1024.65
2016-12-20T07:38:55.028Z,1024.67
2016-12-20T07:40:05.723Z,1024.69
2016-12-20T07:41:16.448Z,1024.62
2016-12-20T07:42:27.472Z,1024.65
2016-12-20T07:43:38.193Z,1024.66
2016-12-20T07:44:48.911Z,1024.69
2016-12-20T07:45:59.635Z,1024.72
2016-12-20T07:47:10.385Z,1024.71
2016-12-20T07:48:21.131Z,1024.73
2016-12-20T07:49:31.865Z,1024.71
2016-12-20T07:50:42.597Z,1024.75
2016-12-20T07:51:53.310Z,1024.73
2016-12-20T07:53:04.064Z,1024.77
2016-12-20T07:54:14.800Z,1024.77
2016-12-20T07:55:25.507Z,1024.8
2016-12-20T07:56:36.241Z,1024.82
2016-12-20T07:57:46.973Z,1024.8
2016-12-20T07:58:57.695Z,1024.84
2016-12-20T08:00:08.423Z,1024.79
2016-12-20T08:01:19.152Z,1024.77
2016-12-20T08:02:29.874Z,1024.78
2016-12-20T08:03:40.595Z,1024.81
2016-12-20T08:04:51.313Z,1024.8
2016-12-20T08:06:02.034Z,1024.86
2016-12-20T08:07:12.755Z,1024.86
2016-12-20T08:08:23.508Z,1024.87
2016-12-20T08:09:34.247Z,1024.89
2016-12-20T08:10:44.971Z,1024.86
2016-12-20T08:11:55.724Z,1024.83
2016-12-20T08:13:06.467Z,1024.81
2016-12-20T08:14:17.164Z,1024.81
2016-12-20T08:15:27.865Z,1024.82
2016-12-20T08:16:38.601Z,1024.82
2016-12-20T08:17:49.326Z,1024.82
2016-12-20T08:19:00.053Z,1024.82
2016-12-20T08:20:10.786Z,1024.83
2016-12-20T08:21:21.519Z,1024.84
2016-12-20T08:22:32.257Z,1024.84
2016-12-20T08:23:43.036Z,1024.8
2016-12-20T08:24:53.770Z,1024.82
2016-12-20T08:26:04.474Z,1024.88
2016-12-20T08:27:15.213Z,1024.86
2016-12-20T08:28:25.945Z,1024.9
2016-12-20T08:29:36.683Z,1024.93
2016-12-20T08:30:47.436Z,1024.94
2016-12-20T08:31:58.175Z,1024.97
2016-12-20T08:33:08.921Z,1024.94
2016-12-20T08:34:19.648Z,1024.91
2016-12-20T08:35:30.346Z,1024.89
2016-12-20T08:36:41.043Z,1024.89
2016-12-20T08:37:51.777Z,1024.9
2016-12-20T08:39:02.498Z,1024.89
2016-12-20T08:40:13.219Z,1024.96
2016-12-20T08:41:23.940Z,1024.99
2016-12-20T08:42:34.662Z,1024.93
2016-12-20T08:43:45.370Z,1024.91
2016-12-20T08:44:56.118Z,1024.9
2016-12-20T08:46:06.861Z,1024.87
2016-12-20T08:47:17.606Z,1024.88
2016-12-20T08:48:28.342Z,1024.83
2016-12-20T08:49:39.095Z,1024.82
2016-12-20T08:50:49.795Z,1024.78
2016-12-20T08:52:00.841Z,1024.79
2016-12-20T08:53:11.580Z,1024.81
2016-12-20T08:54:22.326Z,1024.81
2016-12-20T08:55:33.055Z,1024.82
2016-12-20T08:56:43.772Z,1024.82
2016-12-20T08:57:54.518Z,1024.83
2016-12-20T08:59:05.235Z,1024.84
2016-12-20T09:00:15.984Z,1024.87
2016-12-20T09:01:26.731Z,1024.86
2016-12-20T09:02:37.449Z,1024.8
2016-12-20T09:03:48.191Z,1024.91
2016-12-20T09:04:58.924Z,1024.79
2016-12-20T09:06:09.644Z,1024.78
2016-12-20T09:07:20.362Z,1024.81
2016-12-20T09:08:31.104Z,1024.83
2016-12-20T09:09:41.825Z,1024.82
2016-12-20T09:10:52.551Z,1024.81
2016-12-20T09:12:03.272Z,1024.82
2016-12-20T09:13:14.010Z,1024.81
2016-12-20T09:14:24.709Z,1024.81
2016-12-20T09:15:35.428Z,1024.82
2016-12-20T09:16:46.199Z,1024.81
2016-12-20T09:17:56.905Z,1024.81
2016-12-20T09:19:07.653Z,1024.78
2016-12-20T09:20:18.391Z,1024.75
2016-12-20T09:21:29.137Z,1024.69
2016-12-20T09:22:40.158Z,1024.68
2016-12-20T09:23:50.859Z,1024.64
2016-12-20T09:25:01.629Z,1024.62
2016-12-20T09:26:12.367Z,1024.58
2016-12-20T09:27:23.088Z,1024.57
2016-12-20T09:28:33.798Z,1024.51
2016-12-20T09:29:44.534Z,1024.53
2016-12-20T09:30:55.254Z,1024.47
2016-12-20T09:32:05.983Z,1024.47
2016-12-20T09:33:16.701Z,1024.48
2016-12-20T09:34:27.440Z,1024.47
2016-12-20T09:35:38.186Z,1024.5
2016-12-20T09:36:48.892Z,1024.51
2016-12-20T09:37:59.627Z,1024.52
2016-12-20T09:39:10.659Z,1024.54
2016-12-20T09:40:21.382Z,1024.5
2016-12-20T09:41:32.120Z,1024.49
2016-12-20T09:42:42.849Z,1024.54
2016-12-20T09:43:53.590Z,1024.48
2016-12-20T09:45:04.336Z,1024.47
2016-12-20T09:46:15.053Z,1024.47
2016-12-20T09:47:25.807Z,1024.48
2016-12-20T09:48:36.541Z,1024.48
2016-12-20T09:49:47.270Z,1024.5
2016-12-20T09:50:58.017Z,1024.48
2016-12-20T09:52:08.718Z,1024.48
2016-12-20T09:53:19.452Z,1024.52
2016-12-20T09:54:30.160Z,1024.5
2016-12-20T09:55:41.205Z,1024.54
2016-12-20T09:56:51.939Z,1024.51
2016-12-20T09:58:02.664Z,1024.53
2016-12-20T09:59:13.410Z,1024.55
2016-12-20T10:00:24.435Z,1024.54
2016-12-20T10:01:35.156Z,1024.54
2016-12-20T10:02:45.869Z,1024.56
2016-12-20T10:03:56.626Z,1024.56
2016-12-20T10:05:07.372Z,1024.51
2016-12-20T10:06:18.118Z,1024.55
2016-12-20T10:07:28.860Z,1024.49
2016-12-20T10:08:39.578Z,1024.5
2016-12-20T10:09:50.332Z,1024.5
2016-12-20T10:11:01.069Z,1024.46
2016-12-20T10:12:11.778Z,1024.44
2016-12-20T10:13:22.520Z,1024.41
2016-12-20T10:14:33.239Z,1024.39
2016-12-20T10:15:43.964Z,1024.36
2016-12-20T10:16:54.700Z,1024.29
2016-12-20T10:18:05.445Z,1024.27
2016-12-20T10:19:16.212Z,1024.28
2016-12-20T10:20:26.924Z,1024.28
2016-12-20T10:21:37.642Z,1024.23
2016-12-20T10:22:48.358Z,1024.23
2016-12-20T10:23:59.081Z,1024.25
2016-12-20T10:25:09.802Z,1024.24
2016-12-20T10:26:20.822Z,1024.2
2016-12-20T10:27:31.570Z,1024.21
2016-12-20T10:28:42.313Z,1024.15
2016-12-20T10:29:53.076Z,1024.16
2016-12-20T10:31:03.780Z,1024.18
2016-12-20T10:32:14.468Z,1024.12
2016-12-20T10:33:25.190Z,1024.13
2016-12-20T10:34:35.893Z,1024.18
2016-12-20T10:35:46.639Z,1024.09
2016-12-20T10:36:57.360Z,1024.15
2016-12-20T10:38:08.102Z,1024.13
2016-12-20T10:39:18.832Z,1024.14
2016-12-20T10:40:29.552Z,1024.17
2016-12-20T10:41:40.291Z,1024.18
2016-12-20T10:42:51.046Z,1024.16
2016-12-20T10:44:01.789Z,1024.18
2016-12-20T10:45:12.513Z,1024.18
2016-12-20T10:46:23.253Z,1024.19
2016-12-20T10:47:34.002Z,1024.2
2016-12-20T10:48:44.741Z,1024.19
2016-12-20T10:49:55.488Z,1024.14
2016-12-20T10:51:06.212Z,1024.13
2016-12-20T10:52:16.933Z,1024.06
2016-12-20T10:53:27.654Z,1024.04
2016-12-20T10:54:38.379Z,1024.03
2016-12-20T10:55:49.113Z,1024
2016-12-20T10:56:59.817Z,1024
2016-12-20T10:58:10.559Z,1023.95
2016-12-20T10:59:21.279Z,1023.97
2016-12-20T11:00:32.009Z,1023.95
2016-12-20T11:01:42.755Z,1023.98
2016-12-20T11:02:53.501Z,1023.96
2016-12-20T11:04:04.222Z,1023.93
2016-12-20T11:05:14.964Z,1023.9
2016-12-20T11:06:25.713Z,1023.96
2016-12-20T11:07:36.452Z,1023.93
2016-12-20T11:08:47.169Z,1023.9
2016-12-20T11:09:57.898Z,1023.84
2016-12-20T11:11:08.644Z,1023.82
2016-12-20T11:12:19.415Z,1023.82
2016-12-20T11:13:30.139Z,1023.75
2016-12-20T11:14:40.852Z,1023.76
2016-12-20T11:15:51.579Z,1023.71
2016-12-20T11:17:02.302Z,1023.79
2016-12-20T11:18:13.053Z,1023.75
2016-12-20T11:19:23.765Z,1023.78
2016-12-20T11:20:34.487Z,1023.8
2016-12-20T11:21:45.211Z,1023.78
2016-12-20T11:22:55.925Z,1023.71
2016-12-20T11:24:06.649Z,1023.72
2016-12-20T11:25:17.377Z,1023.76
2016-12-20T11:26:28.084Z,1023.76
2016-12-20T11:27:38.806Z,1023.71
2016-12-20T11:28:49.505Z,1023.65
2016-12-20T11:30:00.258Z,1023.74
2016-12-20T11:31:11.000Z,1023.73
2016-12-20T11:32:21.724Z,1023.66
2016-12-20T11:33:32.417Z,1023.69
2016-12-20T11:34:43.138Z,1023.66
2016-12-20T11:35:53.876Z,1023.64
2016-12-20T11:37:04.606Z,1023.66
2016-12-20T11:38:15.355Z,1023.6
2016-12-20T11:39:26.100Z,1023.63
2016-12-20T11:40:36.815Z,1023.59
2016-12-20T11:41:47.539Z,1023.64
2016-12-20T11:42:58.261Z,1023.61
2016-12-20T11:44:08.986Z,1023.65
2016-12-20T11:45:19.702Z,1023.61
2016-12-20T11:46:30.397Z,1023.61
2016-12-20T11:47:41.111Z,1023.61
2016-12-20T11:48:51.839Z,1023.62
2016-12-20T11:50:02.552Z,1023.61
2016-12-20T11:51:13.273Z,1023.56
2016-12-20T11:52:23.969Z,1023.56
2016-12-20T11:53:34.700Z,1023.48
2016-12-20T11:54:45.422Z,1023.5
2016-12-20T11:55:56.150Z,1023.47
2016-12-20T11:57:06.852Z,1023.48
2016-12-20T11:58:17.552Z,1023.44
2016-12-20T11:59:28.281Z,1023.43
2016-12-20T12:00:38.990Z,1023.41
2016-12-20T12:01:49.721Z,1023.32
2016-12-20T12:03:00.440Z,1023.29
2016-12-20T12:04:11.152Z,1023.29
2016-12-20T12:05:21.902Z,1023.21
2016-12-20T12:06:32.627Z,1023.23
2016-12-20T12:07:43.352Z,1023.25
2016-12-20T12:08:54.090Z,1023.13
2016-12-20T12:10:04.782Z,1023.16
2016-12-20T12:11:15.506Z,1023.12
2016-12-20T12:12:26.231Z,1023.12
2016-12-20T12:13:36.952Z,1023.08
2016-12-20T12:14:47.673Z,1023.08
2016-12-20T12:15:58.393Z,1023.07
2016-12-20T12:17:09.118Z,1022.96
2016-12-20T12:18:20.160Z,1022.99
2016-12-20T12:19:30.882Z,1022.89
2016-12-20T12:20:41.628Z,1022.91
2016-12-20T12:21:52.353Z,1022.94
2016-12-20T12:23:03.090Z,1022.92
2016-12-20T12:24:13.820Z,1022.96
2016-12-20T12:25:24.554Z,1022.93
2016-12-20T12:26:35.261Z,1022.9
2016-12-20T12:27:45.996Z,1022.86
2016-12-20T12:28:56.721Z,1022.94
2016-12-20T12:30:07.446Z,1022.92
2016-12-20T12:31:18.192Z,1022.89
2016-12-20T12:32:28.884Z,1022.92
2016-12-20T12:33:39.592Z,1022.88
2016-12-20T12:34:50.330Z,1022.9
2016-12-20T12:36:01.043Z,1022.84
2016-12-20T12:37:11.775Z,1022.88
2016-12-20T12:38:22.485Z,1022.86
2016-12-20T12:39:33.217Z,1022.79
2016-12-20T12:40:43.963Z,1022.82
2016-12-20T12:41:54.710Z,1022.74
2016-12-20T12:43:05.445Z,1022.78
2016-12-20T12:44:16.166Z,1022.82
2016-12-20T12:45:26.891Z,1022.8
2016-12-20T12:46:37.618Z,1022.74
2016-12-20T12:47:48.354Z,1022.71
2016-12-20T12:48:59.079Z,1022.67
2016-12-20T12:50:09.835Z,1022.64
2016-12-20T12:51:20.566Z,1022.68
2016-12-20T12:52:31.275Z,1022.68
2016-12-20T12:53:42.316Z,1022.67
2016-12-20T12:54:53.033Z,1022.76
2016-12-20T12:56:03.791Z,1022.69
2016-12-20T12:57:14.529Z,1022.67
2016-12-20T12:58:25.250Z,1022.69
2016-12-20T12:59:35.964Z,1022.67
2016-12-20T13:00:46.671Z,1022.65
2016-12-20T13:01:57.709Z,1022.55
2016-12-20T13:03:08.409Z,1022.58
2016-12-20T13:04:19.130Z,1022.55
2016-12-20T13:05:29.909Z,1022.53
2016-12-20T13:06:40.668Z,1022.52
2016-12-20T13:07:51.394Z,1022.52
2016-12-20T13:09:02.110Z,1022.5
2016-12-20T13:10:12.813Z,1022.5
2016-12-20T13:11:23.527Z,1022.48
2016-12-20T13:12:34.255Z,1022.44
2016-12-20T13:13:44.994Z,1022.46
2016-12-20T13:14:55.722Z,1022.46
2016-12-20T13:16:06.444Z,1022.46
2016-12-20T13:17:17.182Z,1022.52
2016-12-20T13:18:27.938Z,1022.47
2016-12-20T13:19:38.699Z,1022.48
2016-12-20T13:20:49.402Z,1022.49
2016-12-20T13:22:00.123Z,1022.55
2016-12-20T13:23:10.867Z,1022.54
2016-12-20T13:24:21.562Z,1022.56
2016-12-20T13:25:32.309Z,1022.51
2016-12-20T13:26:43.046Z,1022.59
2016-12-20T13:27:53.775Z,1022.53
2016-12-20T13:29:04.500Z,1022.55
2016-12-20T13:30:15.240Z,1022.59
2016-12-20T13:31:25.964Z,1022.56
2016-12-20T13:32:36.688Z,1022.52
2016-12-20T13:33:47.430Z,1022.52
2016-12-20T13:34:58.172Z,1022.54
2016-12-20T13:36:08.892Z,1022.51
2016-12-20T13:37:19.618Z,1022.47
2016-12-20T13:38:30.360Z,1022.48
2016-12-20T13:39:41.112Z,1022.43
2016-12-20T13:40:51.824Z,1022.4
2016-12-20T13:42:02.554Z,1022.33
2016-12-20T13:43:13.258Z,1022.35
2016-12-20T13:44:24.003Z,1022.29
2016-12-20T13:45:35.036Z,1022.28
2016-12-20T13:46:45.755Z,1022.3
2016-12-20T13:47:56.457Z,1022.25
2016-12-20T13:49:07.178Z,1022.28
2016-12-20T13:50:17.901Z,1022.28
2016-12-20T13:51:28.623Z,1022.3
2016-12-20T13:52:39.359Z,1022.35
2016-12-20T13:53:50.082Z,1022.34
2016-12-20T13:55:00.812Z,1022.38
2016-12-20T13:56:11.525Z,1022.43
2016-12-20T13:57:22.268Z,1022.48
2016-12-20T13:58:32.992Z,1022.49
2016-12-20T13:59:43.717Z,1022.53
2016-12-20T14:00:54.456Z,1022.55
2016-12-20T14:02:05.159Z,1022.54
2016-12-20T14:03:15.905Z,1022.55
2016-12-20T14:04:26.656Z,1022.54
2016-12-20T14:05:37.689Z,1022.53
2016-12-20T14:06:48.401Z,1022.53
2016-12-20T14:07:59.143Z,1022.52
2016-12-20T14:09:09.885Z,1022.53
2016-12-20T14:10:20.635Z,1022.52
2016-12-20T14:11:31.377Z,1022.49
2016-12-20T14:12:42.118Z,1022.52
2016-12-20T14:13:52.823Z,1022.49
2016-12-20T14:15:03.569Z,1022.48
2016-12-20T14:16:14.292Z,1022.5
2016-12-20T14:17:25.013Z,1022.43
2016-12-20T14:18:35.759Z,1022.44